SEY048 FIMP-FSIA
Flight info
| Callsign | SEY048 |
|---|---|
| Flight time | 2h 37m |
| Altitude | 37000 |
| Route | DURDA1C DURDA/N0449F390 UT401 ALRAN UM313 RERUS/N0445F380 DCT IMPOX IMPOX1E |
| Aircraft | A20N/M-SDE2E3FGHIRWXY/LB1 |
Departure
| Time | 2026-04-25 14:00 |
|---|---|
| Airport | Sir Seewoosagur Ramgoolam International Airport (FIMP) |
Arrival
| Time | 2026-04-25 16:37 |
|---|---|
| Airport | Seychelles International Airport (FSIA) |
| Time | Latitude | Longitude | Altitude | Speed | Heading |
|---|---|---|---|---|---|
| 2026-04-25 13:33 | -20.43078 | 57.67703 | 190 ft | 0 kts | 206° |
| 2026-04-25 13:53 | -20.43077 | 57.67704 | 190 ft | 1 kts | 206° |
| 2026-04-25 13:53 | -20.43063 | 57.67710 | 190 ft | 2 kts | 206° |
| 2026-04-25 13:53 | -20.43050 | 57.67718 | 190 ft | 2 kts | 206° |
| 2026-04-25 13:53 | -20.43036 | 57.67725 | 190 ft | 2 kts | 206° |
| 2026-04-25 13:54 | -20.43022 | 57.67732 | 190 ft | 2 kts | 206° |
| 2026-04-25 13:54 | -20.43008 | 57.67739 | 190 ft | 2 kts | 205° |
| 2026-04-25 13:54 | -20.42997 | 57.67751 | 190 ft | 2 kts | 248° |
| 2026-04-25 13:54 | -20.42995 | 57.67768 | 190 ft | 2 kts | 284° |
| 2026-04-25 13:55 | -20.42998 | 57.67775 | 190 ft | 1 kts | 302° |
| 2026-04-25 13:55 | -20.43000 | 57.67779 | 190 ft | 0 kts | 297° |
| 2026-04-25 13:57 | -20.42987 | 57.67752 | 190 ft | 10 kts | 296° |
| 2026-04-25 13:58 | -20.42942 | 57.67665 | 190 ft | 11 kts | 309° |
| 2026-04-25 13:58 | -20.42869 | 57.67619 | 190 ft | 12 kts | 333° |
| 2026-04-25 13:58 | -20.42793 | 57.67566 | 190 ft | 13 kts | 323° |
| 2026-04-25 13:58 | -20.42717 | 57.67504 | 190 ft | 14 kts | 322° |
| 2026-04-25 13:59 | -20.42629 | 57.67464 | 190 ft | 8 kts | 344° |
| 2026-04-25 13:59 | -20.42582 | 57.67485 | 190 ft | 8 kts | 90° |
| 2026-04-25 13:59 | -20.42614 | 57.67559 | 190 ft | 23 kts | 117° |
| 2026-04-25 13:59 | -20.42800 | 57.67945 | 190 ft | 92 kts | 117° |
| 2026-04-25 14:00 | -20.43045 | 57.68451 | 190 ft | 132 kts | 117° |
| 2026-04-25 14:00 | -20.43712 | 57.69808 | 546 ft | 163 kts | 118° |
| 2026-04-25 14:00 | -20.44231 | 57.70835 | 1231 ft | 157 kts | 117° |
| 2026-04-25 14:00 | -20.44718 | 57.71858 | 1766 ft | 156 kts | 117° |
| 2026-04-25 14:01 | -20.45234 | 57.72916 | 2102 ft | 167 kts | 118° |
| 2026-04-25 14:01 | -20.45793 | 57.74065 | 2409 ft | 182 kts | 117° |
| 2026-04-25 14:01 | -20.46140 | 57.75409 | 2706 ft | 200 kts | 88° |
| 2026-04-25 14:01 | -20.45614 | 57.76853 | 3015 ft | 222 kts | 53° |
| 2026-04-25 14:02 | -20.44307 | 57.77864 | 3271 ft | 248 kts | 31° |
| 2026-04-25 14:02 | -20.42741 | 57.78738 | 3889 ft | 254 kts | 30° |
| 2026-04-25 14:02 | -20.41184 | 57.79618 | 4483 ft | 261 kts | 31° |
| 2026-04-25 14:02 | -20.40085 | 57.80252 | 4758 ft | 273 kts | 31° |
| 2026-04-25 14:03 | -20.37785 | 57.81593 | 5595 ft | 283 kts | 31° |
| 2026-04-25 14:03 | -20.36067 | 57.82597 | 6301 ft | 285 kts | 31° |
| 2026-04-25 14:03 | -20.34313 | 57.83623 | 6994 ft | 288 kts | 31° |
| 2026-04-25 14:03 | -20.32556 | 57.84653 | 7658 ft | 290 kts | 31° |
| 2026-04-25 14:04 | -20.30769 | 57.85701 | 8165 ft | 293 kts | 30° |
| 2026-04-25 14:04 | -20.28951 | 57.86726 | 8471 ft | 297 kts | 28° |
| 2026-04-25 14:04 | -20.27079 | 57.87736 | 9092 ft | 300 kts | 28° |
| 2026-04-25 14:04 | -20.25228 | 57.88731 | 9775 ft | 300 kts | 28° |
| 2026-04-25 14:05 | -20.23347 | 57.89706 | 10414 ft | 306 kts | 22° |
| 2026-04-25 14:05 | -20.21178 | 57.90136 | 10826 ft | 324 kts | 358° |
| 2026-04-25 14:05 | -20.18936 | 57.89583 | 11255 ft | 342 kts | 334° |
| 2026-04-25 14:05 | -20.16985 | 57.88048 | 11700 ft | 359 kts | 311° |
| 2026-04-25 14:06 | -20.15350 | 57.85924 | 12061 ft | 376 kts | 309° |
| 2026-04-25 14:06 | -20.13665 | 57.83705 | 12346 ft | 392 kts | 309° |
| 2026-04-25 14:06 | -20.11901 | 57.81405 | 12657 ft | 406 kts | 309° |
| 2026-04-25 14:06 | -20.10099 | 57.79074 | 13207 ft | 410 kts | 309° |
| 2026-04-25 14:07 | -20.08277 | 57.76733 | 13682 ft | 414 kts | 309° |
| 2026-04-25 14:07 | -20.06407 | 57.74340 | 14078 ft | 419 kts | 309° |
| 2026-04-25 14:07 | -20.04543 | 57.71957 | 14480 ft | 423 kts | 309° |
| 2026-04-25 14:07 | -20.02644 | 57.69533 | 14879 ft | 426 kts | 309° |
| 2026-04-25 14:08 | -20.00722 | 57.67081 | 15289 ft | 431 kts | 309° |
| 2026-04-25 14:08 | -19.98810 | 57.64636 | 15737 ft | 434 kts | 309° |
| 2026-04-25 14:08 | -19.96873 | 57.62159 | 16191 ft | 438 kts | 309° |
| 2026-04-25 14:08 | -19.94896 | 57.59634 | 16623 ft | 442 kts | 309° |
| 2026-04-25 14:09 | -19.92917 | 57.57109 | 17030 ft | 447 kts | 309° |
| 2026-04-25 14:09 | -19.90902 | 57.54537 | 17436 ft | 451 kts | 309° |
| 2026-04-25 14:09 | -19.88796 | 57.52049 | 17854 ft | 455 kts | 315° |
| 2026-04-25 14:09 | -19.87217 | 57.50564 | 18132 ft | 457 kts | 321° |
| 2026-04-25 14:10 | -19.83663 | 57.48078 | 18694 ft | 460 kts | 332° |
| 2026-04-25 14:10 | -19.80751 | 57.46532 | 19087 ft | 464 kts | 334° |
| 2026-04-25 14:10 | -19.77861 | 57.45060 | 19426 ft | 468 kts | 334° |
| 2026-04-25 14:10 | -19.74883 | 57.43552 | 19794 ft | 471 kts | 334° |
| 2026-04-25 14:11 | -19.71917 | 57.42043 | 20118 ft | 474 kts | 333° |
| 2026-04-25 14:11 | -19.68936 | 57.40519 | 20459 ft | 478 kts | 333° |
| 2026-04-25 14:11 | -19.65909 | 57.38965 | 20818 ft | 480 kts | 333° |
| 2026-04-25 14:11 | -19.62881 | 57.37407 | 21152 ft | 483 kts | 333° |
| 2026-04-25 14:12 | -19.59826 | 57.35832 | 21436 ft | 486 kts | 333° |
| 2026-04-25 14:12 | -19.56774 | 57.34258 | 21704 ft | 491 kts | 333° |
| 2026-04-25 14:12 | -19.53668 | 57.32655 | 22041 ft | 493 kts | 333° |
| 2026-04-25 14:12 | -19.50567 | 57.31057 | 22351 ft | 495 kts | 332° |
| 2026-04-25 14:13 | -19.47431 | 57.29443 | 22638 ft | 498 kts | 333° |
| 2026-04-25 14:13 | -19.44302 | 57.27832 | 22907 ft | 501 kts | 332° |
| 2026-04-25 14:13 | -19.41166 | 57.26217 | 23202 ft | 502 kts | 332° |
| 2026-04-25 14:13 | -19.38019 | 57.24598 | 23555 ft | 502 kts | 332° |
| 2026-04-25 14:14 | -19.34885 | 57.22987 | 23955 ft | 500 kts | 332° |
| 2026-04-25 14:14 | -19.31736 | 57.21370 | 24359 ft | 499 kts | 332° |
| 2026-04-25 14:14 | -19.28592 | 57.19759 | 24761 ft | 497 kts | 332° |
| 2026-04-25 14:14 | -19.25470 | 57.18167 | 25166 ft | 495 kts | 332° |
| 2026-04-25 14:15 | -19.22365 | 57.16582 | 25548 ft | 493 kts | 332° |
| 2026-04-25 14:15 | -19.20267 | 57.15511 | 25800 ft | 493 kts | 332° |
| 2026-04-25 14:15 | -19.16174 | 57.13420 | 26304 ft | 491 kts | 332° |
| 2026-04-25 14:15 | -19.13077 | 57.11838 | 26684 ft | 489 kts | 332° |
| 2026-04-25 14:16 | -19.10031 | 57.10280 | 27035 ft | 488 kts | 332° |
| 2026-04-25 14:16 | -19.06943 | 57.08699 | 27423 ft | 486 kts | 332° |
| 2026-04-25 14:16 | -19.03888 | 57.07141 | 27804 ft | 485 kts | 332° |
| 2026-04-25 14:16 | -19.00867 | 57.05597 | 28184 ft | 483 kts | 332° |
| 2026-04-25 14:17 | -18.97866 | 57.04064 | 28564 ft | 481 kts | 332° |
| 2026-04-25 14:17 | -18.94833 | 57.02517 | 28950 ft | 479 kts | 331° |
| 2026-04-25 14:17 | -18.91839 | 57.00988 | 29331 ft | 478 kts | 332° |
| 2026-04-25 14:17 | -18.88807 | 56.99440 | 29730 ft | 476 kts | 332° |
| 2026-04-25 14:18 | -18.85815 | 56.97913 | 30070 ft | 475 kts | 332° |
| 2026-04-25 14:18 | -18.82846 | 56.96398 | 30427 ft | 474 kts | 332° |
| 2026-04-25 14:18 | -18.79887 | 56.94891 | 30781 ft | 473 kts | 332° |
| 2026-04-25 14:18 | -18.76926 | 56.93384 | 31135 ft | 472 kts | 332° |
| 2026-04-25 14:19 | -18.73955 | 56.91871 | 31480 ft | 471 kts | 332° |
| 2026-04-25 14:19 | -18.71010 | 56.90374 | 31798 ft | 469 kts | 332° |
| 2026-04-25 14:19 | -18.68046 | 56.88867 | 32160 ft | 468 kts | 332° |
| 2026-04-25 14:19 | -18.65134 | 56.87388 | 32467 ft | 466 kts | 332° |
| 2026-04-25 14:20 | -18.62216 | 56.85905 | 32864 ft | 463 kts | 332° |
| 2026-04-25 14:20 | -18.60243 | 56.84904 | 33103 ft | 462 kts | 331° |
| 2026-04-25 14:20 | -18.56327 | 56.82916 | 33599 ft | 460 kts | 331° |
| 2026-04-25 14:20 | -18.53465 | 56.81462 | 33937 ft | 458 kts | 331° |
| 2026-04-25 14:21 | -18.50573 | 56.79995 | 34265 ft | 456 kts | 331° |
| 2026-04-25 14:21 | -18.47682 | 56.78529 | 34637 ft | 454 kts | 331° |
| 2026-04-25 14:21 | -18.44857 | 56.77094 | 34939 ft | 453 kts | 331° |
| 2026-04-25 14:21 | -18.41999 | 56.75644 | 35212 ft | 452 kts | 330° |
| 2026-04-25 14:22 | -18.39162 | 56.74204 | 35434 ft | 452 kts | 331° |
| 2026-04-25 14:22 | -18.36293 | 56.72746 | 35576 ft | 453 kts | 330° |
| 2026-04-25 14:22 | -18.33454 | 56.71309 | 35726 ft | 455 kts | 330° |
| 2026-04-25 14:22 | -18.30605 | 56.69867 | 35917 ft | 454 kts | 330° |
| 2026-04-25 14:23 | -18.27749 | 56.68420 | 36124 ft | 454 kts | 330° |
| 2026-04-25 14:23 | -18.24899 | 56.66973 | 36282 ft | 454 kts | 330° |
| 2026-04-25 14:23 | -18.22031 | 56.65521 | 36402 ft | 455 kts | 330° |
| 2026-04-25 14:23 | -18.19176 | 56.64077 | 36514 ft | 456 kts | 330° |
| 2026-04-25 14:24 | -18.16263 | 56.62661 | 36634 ft | 458 kts | 333° |
| 2026-04-25 14:24 | -18.13310 | 56.61421 | 36772 ft | 459 kts | 336° |
| 2026-04-25 14:24 | -18.10276 | 56.60347 | 36879 ft | 462 kts | 339° |
| 2026-04-25 14:25 | -18.03917 | 56.58706 | 36882 ft | 467 kts | 346° |
| 2026-04-25 14:25 | -17.97439 | 56.57827 | 36887 ft | 468 kts | 351° |
| 2026-04-25 14:26 | -17.90931 | 56.57218 | 36893 ft | 469 kts | 351° |
| 2026-04-25 14:26 | -17.84394 | 56.56607 | 36884 ft | 469 kts | 351° |
| 2026-04-25 14:27 | -17.77836 | 56.55989 | 36887 ft | 469 kts | 351° |
| 2026-04-25 14:27 | -17.71345 | 56.55379 | 36890 ft | 468 kts | 351° |
| 2026-04-25 14:28 | -17.64852 | 56.54769 | 36890 ft | 465 kts | 350° |
| 2026-04-25 14:28 | -17.58387 | 56.54159 | 36887 ft | 465 kts | 351° |
| 2026-04-25 14:29 | -17.51926 | 56.53549 | 36895 ft | 463 kts | 350° |
| 2026-04-25 14:29 | -17.45517 | 56.52945 | 36889 ft | 464 kts | 350° |
| 2026-04-25 14:30 | -17.39072 | 56.52340 | 36886 ft | 464 kts | 350° |
| 2026-04-25 14:30 | -17.29358 | 56.51429 | 36898 ft | 463 kts | 350° |
| 2026-04-25 14:31 | -17.22938 | 56.50824 | 36900 ft | 462 kts | 350° |
| 2026-04-25 14:31 | -17.16533 | 56.50223 | 36899 ft | 461 kts | 350° |
| 2026-04-25 14:32 | -17.10160 | 56.49625 | 36889 ft | 459 kts | 350° |
| 2026-04-25 14:32 | -17.03768 | 56.49025 | 36891 ft | 459 kts | 350° |
| 2026-04-25 14:33 | -16.97367 | 56.48426 | 36903 ft | 458 kts | 350° |
| 2026-04-25 14:33 | -16.90935 | 56.47822 | 36899 ft | 459 kts | 350° |
| 2026-04-25 14:34 | -16.84537 | 56.47224 | 36885 ft | 459 kts | 350° |
| 2026-04-25 14:34 | -16.78148 | 56.46626 | 36891 ft | 458 kts | 350° |
| 2026-04-25 14:35 | -16.71761 | 56.46030 | 36883 ft | 458 kts | 350° |
| 2026-04-25 14:35 | -16.65430 | 56.45440 | 36880 ft | 458 kts | 350° |
| 2026-04-25 14:36 | -16.59069 | 56.44847 | 36885 ft | 458 kts | 350° |
| 2026-04-25 14:36 | -16.52718 | 56.44255 | 36883 ft | 458 kts | 350° |
| 2026-04-25 14:37 | -16.46351 | 56.43661 | 36878 ft | 458 kts | 350° |
| 2026-04-25 14:37 | -16.39950 | 56.43064 | 36881 ft | 458 kts | 350° |
| 2026-04-25 14:38 | -16.33590 | 56.42474 | 36872 ft | 458 kts | 350° |
| 2026-04-25 14:38 | -16.27196 | 56.41878 | 36888 ft | 459 kts | 351° |
| 2026-04-25 14:39 | -16.20808 | 56.41284 | 36872 ft | 459 kts | 351° |
| 2026-04-25 14:39 | -16.14427 | 56.40693 | 36873 ft | 459 kts | 351° |
| 2026-04-25 14:40 | -16.08039 | 56.40100 | 36879 ft | 459 kts | 351° |
| 2026-04-25 14:40 | -16.01692 | 56.39511 | 36875 ft | 459 kts | 351° |
| 2026-04-25 14:41 | -15.95280 | 56.38917 | 36871 ft | 459 kts | 351° |
| 2026-04-25 14:41 | -15.88882 | 56.38325 | 36870 ft | 460 kts | 351° |
| 2026-04-25 14:42 | -15.83578 | 56.37838 | 36874 ft | 459 kts | 350° |
| 2026-04-25 14:42 | -15.76133 | 56.37131 | 36868 ft | 458 kts | 350° |
| 2026-04-25 14:43 | -15.69747 | 56.36536 | 36869 ft | 458 kts | 350° |
| 2026-04-25 14:43 | -15.63382 | 56.35944 | 36869 ft | 457 kts | 351° |
| 2026-04-25 14:44 | -15.57035 | 56.35362 | 36869 ft | 457 kts | 351° |
| 2026-04-25 14:44 | -15.50701 | 56.34777 | 36870 ft | 456 kts | 351° |
| 2026-04-25 14:45 | -15.44365 | 56.34193 | 36869 ft | 456 kts | 351° |
| 2026-04-25 14:45 | -15.38062 | 56.33614 | 36872 ft | 456 kts | 351° |
| 2026-04-25 14:46 | -15.31700 | 56.33025 | 36867 ft | 456 kts | 351° |
| 2026-04-25 14:46 | -15.25390 | 56.32445 | 36862 ft | 455 kts | 351° |
| 2026-04-25 14:47 | -15.20107 | 56.31959 | 36861 ft | 455 kts | 351° |
| 2026-04-25 14:47 | -15.12756 | 56.31285 | 36870 ft | 454 kts | 351° |
| 2026-04-25 14:48 | -15.06421 | 56.30705 | 36871 ft | 455 kts | 351° |
| 2026-04-25 14:48 | -15.00088 | 56.30123 | 36880 ft | 455 kts | 351° |
| 2026-04-25 14:49 | -14.93769 | 56.29544 | 36870 ft | 454 kts | 351° |
| 2026-04-25 14:49 | -14.87455 | 56.28966 | 36871 ft | 454 kts | 351° |
| 2026-04-25 14:50 | -14.81142 | 56.28387 | 36873 ft | 454 kts | 351° |
| 2026-04-25 14:50 | -14.74811 | 56.27808 | 36871 ft | 454 kts | 351° |
| 2026-04-25 14:51 | -14.68532 | 56.27233 | 36877 ft | 454 kts | 351° |
| 2026-04-25 14:51 | -14.62227 | 56.26656 | 36872 ft | 453 kts | 351° |
| 2026-04-25 14:52 | -14.55910 | 56.26078 | 36868 ft | 454 kts | 352° |
| 2026-04-25 14:52 | -14.50630 | 56.25596 | 36870 ft | 454 kts | 352° |
| 2026-04-25 14:53 | -14.43251 | 56.24922 | 36874 ft | 454 kts | 352° |
| 2026-04-25 14:53 | -14.36929 | 56.24347 | 36871 ft | 455 kts | 352° |
| 2026-04-25 14:54 | -14.30612 | 56.23770 | 36876 ft | 454 kts | 352° |
| 2026-04-25 14:54 | -14.24319 | 56.23201 | 36874 ft | 453 kts | 352° |
| 2026-04-25 14:55 | -14.17997 | 56.22628 | 36872 ft | 454 kts | 352° |
| 2026-04-25 14:55 | -14.11692 | 56.22054 | 36878 ft | 454 kts | 352° |
| 2026-04-25 14:56 | -14.05371 | 56.21478 | 36871 ft | 454 kts | 352° |
| 2026-04-25 14:56 | -13.99073 | 56.20906 | 36871 ft | 454 kts | 352° |
| 2026-04-25 14:57 | -13.92752 | 56.20333 | 36863 ft | 454 kts | 352° |
| 2026-04-25 14:57 | -13.86404 | 56.19756 | 36859 ft | 453 kts | 352° |
| 2026-04-25 14:58 | -13.80110 | 56.19184 | 36848 ft | 453 kts | 352° |
| 2026-04-25 14:58 | -13.73828 | 56.18614 | 36850 ft | 454 kts | 352° |
| 2026-04-25 14:59 | -13.67480 | 56.18040 | 36851 ft | 454 kts | 352° |
| 2026-04-25 14:59 | -13.61184 | 56.17469 | 36847 ft | 454 kts | 352° |
| 2026-04-25 15:00 | -13.54817 | 56.16894 | 36850 ft | 453 kts | 352° |
| 2026-04-25 15:00 | -13.48547 | 56.16327 | 36847 ft | 452 kts | 352° |
| 2026-04-25 15:01 | -13.42245 | 56.15755 | 36850 ft | 452 kts | 352° |
| 2026-04-25 15:01 | -13.35971 | 56.15188 | 36849 ft | 451 kts | 352° |
| 2026-04-25 15:02 | -13.29608 | 56.14611 | 36857 ft | 452 kts | 352° |
| 2026-04-25 15:02 | -13.22897 | 56.14005 | 36866 ft | 453 kts | 352° |
| 2026-04-25 15:03 | -13.16614 | 56.13438 | 36869 ft | 452 kts | 352° |
| 2026-04-25 15:03 | -13.10325 | 56.12870 | 36871 ft | 451 kts | 352° |
| 2026-04-25 15:04 | -13.04082 | 56.12308 | 36867 ft | 450 kts | 352° |
| 2026-04-25 15:04 | -12.97767 | 56.11739 | 36871 ft | 449 kts | 352° |
| 2026-04-25 15:05 | -12.91507 | 56.11175 | 36868 ft | 450 kts | 352° |
| 2026-04-25 15:06 | -12.82075 | 56.10327 | 36867 ft | 451 kts | 352° |
| 2026-04-25 15:06 | -12.75799 | 56.09762 | 36870 ft | 451 kts | 351° |
| 2026-04-25 15:07 | -12.69518 | 56.09197 | 36871 ft | 451 kts | 351° |
| 2026-04-25 15:07 | -12.63262 | 56.08631 | 36865 ft | 451 kts | 351° |
| 2026-04-25 15:08 | -12.56977 | 56.08068 | 36861 ft | 451 kts | 351° |
| 2026-04-25 15:08 | -12.50729 | 56.07507 | 36858 ft | 449 kts | 351° |
| 2026-04-25 15:09 | -12.44499 | 56.06947 | 36861 ft | 448 kts | 351° |
| 2026-04-25 15:09 | -12.35186 | 56.06110 | 36857 ft | 447 kts | 351° |
| 2026-04-25 15:10 | -12.28960 | 56.05551 | 36855 ft | 448 kts | 351° |
| 2026-04-25 15:11 | -12.19568 | 56.04708 | 36856 ft | 448 kts | 351° |
| 2026-04-25 15:11 | -12.13298 | 56.04378 | 36864 ft | 450 kts | 356° |
| 2026-04-25 15:12 | -12.03908 | 56.05143 | 36868 ft | 454 kts | 4° |
| 2026-04-25 15:12 | -11.98681 | 56.05967 | 36868 ft | 454 kts | 5° |
| 2026-04-25 15:13 | -11.88200 | 56.07633 | 36871 ft | 454 kts | 5° |
| 2026-04-25 15:14 | -11.81914 | 56.08630 | 36870 ft | 454 kts | 5° |
| 2026-04-25 15:14 | -11.75665 | 56.09618 | 36871 ft | 453 kts | 5° |
| 2026-04-25 15:15 | -11.69432 | 56.10606 | 36870 ft | 452 kts | 5° |
| 2026-04-25 15:15 | -11.63178 | 56.11596 | 36870 ft | 453 kts | 5° |
| 2026-04-25 15:16 | -11.56937 | 56.12583 | 36870 ft | 453 kts | 5° |
| 2026-04-25 15:16 | -11.47539 | 56.14068 | 36872 ft | 453 kts | 5° |
| 2026-04-25 15:17 | -11.38189 | 56.15546 | 36869 ft | 452 kts | 5° |
| 2026-04-25 15:18 | -11.31939 | 56.16531 | 36868 ft | 451 kts | 5° |
| 2026-04-25 15:18 | -11.22572 | 56.18010 | 36866 ft | 452 kts | 5° |
| 2026-04-25 15:19 | -11.17386 | 56.18828 | 36862 ft | 452 kts | 5° |
| 2026-04-25 15:19 | -11.10084 | 56.19980 | 36854 ft | 452 kts | 5° |
| 2026-04-25 15:20 | -11.03891 | 56.20956 | 36857 ft | 451 kts | 5° |
| 2026-04-25 15:20 | -10.97631 | 56.21943 | 36848 ft | 451 kts | 5° |
| 2026-04-25 15:21 | -10.91417 | 56.22920 | 36853 ft | 450 kts | 5° |
| 2026-04-25 15:21 | -10.85080 | 56.23916 | 36857 ft | 450 kts | 5° |
| 2026-04-25 15:22 | -10.78898 | 56.24889 | 36849 ft | 450 kts | 5° |
| 2026-04-25 15:22 | -10.72650 | 56.25871 | 36855 ft | 450 kts | 5° |
| 2026-04-25 15:23 | -10.66454 | 56.26843 | 36852 ft | 448 kts | 5° |
| 2026-04-25 15:23 | -10.60270 | 56.27815 | 36849 ft | 449 kts | 5° |
| 2026-04-25 15:24 | -10.54089 | 56.28787 | 36845 ft | 449 kts | 5° |
| 2026-04-25 15:24 | -10.48899 | 56.29603 | 36853 ft | 449 kts | 5° |
| 2026-04-25 15:25 | -10.41676 | 56.30736 | 36854 ft | 449 kts | 6° |
| 2026-04-25 15:25 | -10.35510 | 56.31704 | 36846 ft | 448 kts | 6° |
| 2026-04-25 15:26 | -10.29303 | 56.32677 | 36856 ft | 449 kts | 6° |
| 2026-04-25 15:26 | -10.23142 | 56.33641 | 36841 ft | 448 kts | 6° |
| 2026-04-25 15:27 | -10.16957 | 56.34609 | 36842 ft | 448 kts | 6° |
| 2026-04-25 15:28 | -10.07662 | 56.36063 | 36866 ft | 448 kts | 5° |
| 2026-04-25 15:28 | -10.01433 | 56.36679 | 36852 ft | 445 kts | 360° |
| 2026-04-25 15:29 | -9.95266 | 56.36623 | 36855 ft | 442 kts | 354° |
| 2026-04-25 15:29 | -9.89101 | 56.35989 | 36850 ft | 442 kts | 351° |
| 2026-04-25 15:30 | -9.83132 | 56.35285 | 36850 ft | 442 kts | 351° |
| 2026-04-25 15:30 | -9.77081 | 56.34566 | 36849 ft | 442 kts | 351° |
| 2026-04-25 15:31 | -9.70970 | 56.33843 | 36855 ft | 442 kts | 351° |
| 2026-04-25 15:31 | -9.64809 | 56.33114 | 36855 ft | 442 kts | 351° |
| 2026-04-25 15:32 | -9.58707 | 56.32392 | 36860 ft | 442 kts | 351° |
| 2026-04-25 15:32 | -9.52789 | 56.31692 | 36855 ft | 443 kts | 351° |
| 2026-04-25 15:33 | -9.43547 | 56.30603 | 36854 ft | 443 kts | 351° |
| 2026-04-25 15:33 | -9.37439 | 56.29880 | 36857 ft | 444 kts | 351° |
| 2026-04-25 15:34 | -9.31270 | 56.29153 | 36863 ft | 443 kts | 351° |
| 2026-04-25 15:34 | -9.26117 | 56.28547 | 36865 ft | 443 kts | 351° |
| 2026-04-25 15:35 | -9.15979 | 56.27352 | 36867 ft | 444 kts | 351° |
| 2026-04-25 15:36 | -9.07064 | 56.26300 | 36872 ft | 444 kts | 351° |
| 2026-04-25 15:36 | -9.00872 | 56.25571 | 36869 ft | 444 kts | 351° |
| 2026-04-25 15:37 | -8.94815 | 56.24858 | 36870 ft | 444 kts | 352° |
| 2026-04-25 15:37 | -8.88623 | 56.24129 | 36868 ft | 444 kts | 352° |
| 2026-04-25 15:38 | -8.82592 | 56.23421 | 36865 ft | 444 kts | 352° |
| 2026-04-25 15:38 | -8.76639 | 56.22721 | 36862 ft | 444 kts | 352° |
| 2026-04-25 15:39 | -8.70469 | 56.21996 | 36857 ft | 444 kts | 352° |
| 2026-04-25 15:39 | -8.64557 | 56.21301 | 36851 ft | 444 kts | 352° |
| 2026-04-25 15:40 | -8.59410 | 56.20695 | 36848 ft | 443 kts | 352° |
| 2026-04-25 15:40 | -8.52240 | 56.19852 | 36850 ft | 443 kts | 352° |
| 2026-04-25 15:41 | -8.46106 | 56.19133 | 36851 ft | 443 kts | 352° |
| 2026-04-25 15:41 | -8.39950 | 56.18411 | 36850 ft | 443 kts | 352° |
| 2026-04-25 15:42 | -8.34031 | 56.17716 | 36849 ft | 443 kts | 352° |
| 2026-04-25 15:42 | -8.27923 | 56.17000 | 36850 ft | 442 kts | 352° |
| 2026-04-25 15:43 | -8.21793 | 56.16280 | 36850 ft | 442 kts | 352° |
| 2026-04-25 15:43 | -8.15623 | 56.15555 | 36847 ft | 442 kts | 352° |
| 2026-04-25 15:44 | -8.09635 | 56.14854 | 36849 ft | 442 kts | 352° |
| 2026-04-25 15:44 | -8.03467 | 56.14132 | 36850 ft | 443 kts | 352° |
| 2026-04-25 15:45 | -7.97247 | 56.13402 | 36848 ft | 442 kts | 352° |
| 2026-04-25 15:45 | -7.92080 | 56.12796 | 36851 ft | 441 kts | 352° |
| 2026-04-25 15:46 | -7.84901 | 56.11956 | 36849 ft | 442 kts | 352° |
| 2026-04-25 15:46 | -7.78728 | 56.11233 | 36850 ft | 443 kts | 352° |
| 2026-04-25 15:47 | -7.72618 | 56.10516 | 36847 ft | 443 kts | 352° |
| 2026-04-25 15:47 | -7.66482 | 56.09797 | 36851 ft | 443 kts | 352° |
| 2026-04-25 15:48 | -7.60306 | 56.09022 | 36847 ft | 442 kts | 351° |
| 2026-04-25 15:48 | -7.54178 | 56.08097 | 36842 ft | 443 kts | 351° |
| 2026-04-25 15:49 | -7.48067 | 56.07171 | 36849 ft | 442 kts | 351° |
| 2026-04-25 15:49 | -7.41950 | 56.06253 | 36851 ft | 442 kts | 351° |
| 2026-04-25 15:50 | -7.35791 | 56.05335 | 36852 ft | 443 kts | 351° |
| 2026-04-25 15:50 | -7.29690 | 56.04424 | 36845 ft | 443 kts | 351° |
| 2026-04-25 15:51 | -7.24547 | 56.03657 | 36851 ft | 444 kts | 351° |
| 2026-04-25 15:51 | -7.17394 | 56.02589 | 36847 ft | 444 kts | 351° |
| 2026-04-25 15:52 | -7.11244 | 56.01675 | 36856 ft | 443 kts | 351° |
| 2026-04-25 15:52 | -7.05115 | 56.00763 | 36859 ft | 444 kts | 351° |
| 2026-04-25 15:53 | -6.98995 | 55.99852 | 36866 ft | 444 kts | 351° |
| 2026-04-25 15:53 | -6.92852 | 55.98937 | 36871 ft | 444 kts | 351° |
| 2026-04-25 15:54 | -6.86695 | 55.98019 | 36869 ft | 444 kts | 351° |
| 2026-04-25 15:54 | -6.80536 | 55.97101 | 36869 ft | 444 kts | 351° |
| 2026-04-25 15:55 | -6.74389 | 55.96186 | 36870 ft | 445 kts | 351° |
| 2026-04-25 15:55 | -6.68204 | 55.95265 | 36865 ft | 445 kts | 351° |
| 2026-04-25 15:56 | -6.62081 | 55.94354 | 36869 ft | 445 kts | 351° |
| 2026-04-25 15:56 | -6.58989 | 55.93894 | 36625 ft | 445 kts | 351° |
| 2026-04-25 15:56 | -6.55939 | 55.93441 | 36124 ft | 444 kts | 351° |
| 2026-04-25 15:57 | -6.52864 | 55.92984 | 35476 ft | 440 kts | 351° |
| 2026-04-25 15:57 | -6.49830 | 55.92532 | 34839 ft | 438 kts | 351° |
| 2026-04-25 15:57 | -6.46798 | 55.92082 | 34205 ft | 440 kts | 351° |
| 2026-04-25 15:57 | -6.43725 | 55.91625 | 33560 ft | 443 kts | 351° |
| 2026-04-25 15:58 | -6.40664 | 55.91169 | 32931 ft | 445 kts | 351° |
| 2026-04-25 15:58 | -6.37577 | 55.90710 | 32332 ft | 448 kts | 351° |
| 2026-04-25 15:58 | -6.34590 | 55.90265 | 31772 ft | 450 kts | 351° |
| 2026-04-25 15:58 | -6.31496 | 55.89805 | 31211 ft | 454 kts | 351° |
| 2026-04-25 15:59 | -6.28336 | 55.89336 | 30640 ft | 457 kts | 350° |
| 2026-04-25 15:59 | -6.25159 | 55.88865 | 30073 ft | 460 kts | 350° |
| 2026-04-25 15:59 | -6.21972 | 55.88392 | 29451 ft | 464 kts | 350° |
| 2026-04-25 15:59 | -6.18728 | 55.87911 | 28657 ft | 468 kts | 350° |
| 2026-04-25 16:00 | -6.15478 | 55.87427 | 27999 ft | 473 kts | 350° |
| 2026-04-25 16:00 | -6.13304 | 55.87103 | 27687 ft | 474 kts | 350° |
| 2026-04-25 16:00 | -6.08929 | 55.86454 | 27188 ft | 474 kts | 350° |
| 2026-04-25 16:00 | -6.05653 | 55.85969 | 26728 ft | 473 kts | 350° |
| 2026-04-25 16:01 | -6.02417 | 55.85489 | 26014 ft | 474 kts | 350° |
| 2026-04-25 16:01 | -5.99113 | 55.84998 | 25286 ft | 476 kts | 349° |
| 2026-04-25 16:01 | -5.95839 | 55.84510 | 24569 ft | 478 kts | 349° |
| 2026-04-25 16:01 | -5.92508 | 55.84014 | 23835 ft | 480 kts | 350° |
| 2026-04-25 16:02 | -5.89208 | 55.83522 | 23105 ft | 481 kts | 350° |
| 2026-04-25 16:02 | -5.85894 | 55.83030 | 22375 ft | 476 kts | 350° |
| 2026-04-25 16:02 | -5.82595 | 55.82541 | 21644 ft | 470 kts | 350° |
| 2026-04-25 16:02 | -5.79317 | 55.82054 | 20929 ft | 464 kts | 350° |
| 2026-04-25 16:03 | -5.76145 | 55.81583 | 20243 ft | 460 kts | 350° |
| 2026-04-25 16:03 | -5.72966 | 55.81110 | 19549 ft | 455 kts | 350° |
| 2026-04-25 16:03 | -5.69866 | 55.80650 | 18867 ft | 451 kts | 351° |
| 2026-04-25 16:03 | -5.66758 | 55.80188 | 18180 ft | 446 kts | 351° |
| 2026-04-25 16:04 | -5.63712 | 55.79736 | 17501 ft | 442 kts | 351° |
| 2026-04-25 16:04 | -5.60648 | 55.79280 | 16810 ft | 438 kts | 351° |
| 2026-04-25 16:04 | -5.57616 | 55.78830 | 16117 ft | 434 kts | 351° |
| 2026-04-25 16:04 | -5.54629 | 55.78386 | 15422 ft | 430 kts | 351° |
| 2026-04-25 16:05 | -5.51688 | 55.77950 | 14728 ft | 426 kts | 352° |
| 2026-04-25 16:05 | -5.48743 | 55.77514 | 14025 ft | 422 kts | 352° |
| 2026-04-25 16:05 | -5.42967 | 55.76658 | 12621 ft | 413 kts | 352° |
| 2026-04-25 16:06 | -5.40143 | 55.76239 | 11923 ft | 410 kts | 352° |
| 2026-04-25 16:06 | -5.37293 | 55.75816 | 11212 ft | 406 kts | 352° |
| 2026-04-25 16:06 | -5.34514 | 55.75404 | 10880 ft | 394 kts | 352° |
| 2026-04-25 16:06 | -5.31842 | 55.75008 | 10860 ft | 380 kts | 352° |
| 2026-04-25 16:07 | -5.29286 | 55.74628 | 10851 ft | 358 kts | 352° |
| 2026-04-25 16:07 | -5.27670 | 55.74388 | 10847 ft | 344 kts | 352° |
| 2026-04-25 16:07 | -5.24623 | 55.73936 | 10826 ft | 317 kts | 351° |
| 2026-04-25 16:07 | -5.22474 | 55.73616 | 10697 ft | 303 kts | 351° |
| 2026-04-25 16:08 | -5.20413 | 55.73310 | 10542 ft | 291 kts | 352° |
| 2026-04-25 16:08 | -5.18447 | 55.73018 | 10253 ft | 285 kts | 352° |
| 2026-04-25 16:08 | -5.16467 | 55.72719 | 9904 ft | 283 kts | 352° |
| 2026-04-25 16:08 | -5.14530 | 55.72432 | 9546 ft | 281 kts | 352° |
| 2026-04-25 16:09 | -5.12587 | 55.72144 | 9179 ft | 280 kts | 353° |
| 2026-04-25 16:09 | -5.10637 | 55.71860 | 8745 ft | 279 kts | 352° |
| 2026-04-25 16:09 | -5.08729 | 55.71575 | 8336 ft | 277 kts | 352° |
| 2026-04-25 16:09 | -5.06773 | 55.71288 | 7995 ft | 287 kts | 353° |
| 2026-04-25 16:10 | -5.04733 | 55.70989 | 7586 ft | 307 kts | 354° |
| 2026-04-25 16:10 | -5.02533 | 55.70679 | 7148 ft | 325 kts | 351° |
| 2026-04-25 16:10 | -5.00549 | 55.70372 | 6816 ft | 334 kts | 352° |
| 2026-04-25 16:10 | -4.98244 | 55.70007 | 6522 ft | 328 kts | 354° |
| 2026-04-25 16:11 | -4.96054 | 55.69704 | 6258 ft | 308 kts | 349° |
| 2026-04-25 16:11 | -4.94288 | 55.69450 | 6029 ft | 290 kts | 352° |
| 2026-04-25 16:11 | -4.92385 | 55.69372 | 5681 ft | 262 kts | 10° |
| 2026-04-25 16:11 | -4.90682 | 55.69871 | 5356 ft | 243 kts | 20° |
| 2026-04-25 16:12 | -4.89199 | 55.70484 | 4996 ft | 222 kts | 22° |
| 2026-04-25 16:12 | -4.87773 | 55.71103 | 4666 ft | 221 kts | 22° |
| 2026-04-25 16:12 | -4.86835 | 55.71509 | 4458 ft | 220 kts | 22° |
| 2026-04-25 16:12 | -4.85882 | 55.71941 | 4227 ft | 220 kts | 22° |
| 2026-04-25 16:13 | -4.83988 | 55.72778 | 3804 ft | 224 kts | 21° |
| 2026-04-25 16:13 | -4.82454 | 55.73076 | 3481 ft | 231 kts | 351° |
| 2026-04-25 16:13 | -4.80930 | 55.72501 | 3135 ft | 240 kts | 318° |
| 2026-04-25 16:13 | -4.79926 | 55.71185 | 3024 ft | 238 kts | 295° |
| 2026-04-25 16:14 | -4.79215 | 55.69703 | 2891 ft | 231 kts | 298° |
| 2026-04-25 16:14 | -4.78487 | 55.68308 | 2917 ft | 223 kts | 296° |
| 2026-04-25 16:14 | -4.77782 | 55.66937 | 2874 ft | 218 kts | 300° |
| 2026-04-25 16:14 | -4.76965 | 55.65699 | 2989 ft | 199 kts | 302° |
| 2026-04-25 16:15 | -4.76263 | 55.64615 | 3031 ft | 179 kts | 302° |
| 2026-04-25 16:15 | -4.75560 | 55.63618 | 2726 ft | 171 kts | 304° |
| 2026-04-25 16:15 | -4.74887 | 55.62684 | 2453 ft | 158 kts | 303° |
| 2026-04-25 16:15 | -4.74268 | 55.61804 | 2130 ft | 153 kts | 303° |
| 2026-04-25 16:16 | -4.73608 | 55.60932 | 1868 ft | 153 kts | 307° |
| 2026-04-25 16:16 | -4.72985 | 55.60065 | 1692 ft | 152 kts | 304° |
| 2026-04-25 16:16 | -4.72369 | 55.59214 | 1596 ft | 150 kts | 303° |
| 2026-04-25 16:16 | -4.71780 | 55.58363 | 1522 ft | 157 kts | 303° |
| 2026-04-25 16:17 | -4.71164 | 55.57406 | 1344 ft | 168 kts | 303° |
| 2026-04-25 16:17 | -4.70435 | 55.56464 | 975 ft | 180 kts | 302° |
| 2026-04-25 16:17 | -4.69705 | 55.55421 | 715 ft | 174 kts | 306° |
| 2026-04-25 16:17 | -4.68974 | 55.54514 | 907 ft | 162 kts | 311° |
| 2026-04-25 16:18 | -4.68037 | 55.53964 | 1322 ft | 157 kts | 350° |
| 2026-04-25 16:18 | -4.67663 | 55.53950 | 1422 ft | 164 kts | 2° |
| 2026-04-25 16:18 | -4.65793 | 55.54813 | 2044 ft | 198 kts | 43° |
| 2026-04-25 16:18 | -4.65007 | 55.56020 | 2491 ft | 216 kts | 64° |
| 2026-04-25 16:19 | -4.64590 | 55.57604 | 2303 ft | 262 kts | 85° |
| 2026-04-25 16:19 | -4.64603 | 55.59507 | 2703 ft | 286 kts | 95° |
| 2026-04-25 16:19 | -4.64661 | 55.61581 | 2949 ft | 301 kts | 91° |
| 2026-04-25 16:20 | -4.64680 | 55.65422 | 3413 ft | 249 kts | 90° |
| 2026-04-25 16:20 | -4.64688 | 55.67088 | 3637 ft | 226 kts | 90° |
| 2026-04-25 16:20 | -4.64686 | 55.70225 | 4040 ft | 225 kts | 89° |
| 2026-04-25 16:21 | -4.64855 | 55.71778 | 4016 ft | 224 kts | 112° |
| 2026-04-25 16:21 | -4.65743 | 55.72974 | 4007 ft | 208 kts | 149° |
| 2026-04-25 16:21 | -4.67048 | 55.73459 | 3890 ft | 198 kts | 178° |
| 2026-04-25 16:21 | -4.68387 | 55.73276 | 3722 ft | 192 kts | 200° |
| 2026-04-25 16:22 | -4.69664 | 55.72811 | 3575 ft | 192 kts | 203° |
| 2026-04-25 16:22 | -4.70892 | 55.72300 | 3402 ft | 192 kts | 205° |
| 2026-04-25 16:22 | -4.72132 | 55.71777 | 3325 ft | 192 kts | 204° |
| 2026-04-25 16:22 | -4.73330 | 55.71278 | 3154 ft | 183 kts | 204° |
| 2026-04-25 16:23 | -4.74504 | 55.70798 | 3005 ft | 180 kts | 203° |
| 2026-04-25 16:23 | -4.75654 | 55.70304 | 2852 ft | 179 kts | 205° |
| 2026-04-25 16:23 | -4.76653 | 55.69590 | 2664 ft | 174 kts | 235° |
| 2026-04-25 16:23 | -4.77094 | 55.68505 | 2503 ft | 164 kts | 259° |
| 2026-04-25 16:24 | -4.77147 | 55.67374 | 2331 ft | 163 kts | 269° |
| 2026-04-25 16:24 | -4.77121 | 55.66244 | 2146 ft | 163 kts | 277° |
| 2026-04-25 16:24 | -4.76655 | 55.65203 | 2058 ft | 163 kts | 302° |
| 2026-04-25 16:24 | -4.75976 | 55.64293 | 2058 ft | 163 kts | 305° |
| 2026-04-25 16:25 | -4.75288 | 55.63379 | 2077 ft | 164 kts | 306° |
| 2026-04-25 16:25 | -4.74830 | 55.62762 | 2115 ft | 164 kts | 306° |
| 2026-04-25 16:25 | -4.73929 | 55.61506 | 1948 ft | 168 kts | 303° |
| 2026-04-25 16:25 | -4.73234 | 55.60500 | 1728 ft | 182 kts | 304° |
| 2026-04-25 16:26 | -4.72479 | 55.59433 | 1688 ft | 189 kts | 306° |
| 2026-04-25 16:26 | -4.71690 | 55.58486 | 2330 ft | 176 kts | 310° |
| 2026-04-25 16:26 | -4.70714 | 55.57719 | 2902 ft | 183 kts | 328° |
| 2026-04-25 16:26 | -4.69503 | 55.57085 | 3835 ft | 211 kts | 332° |
| 2026-04-25 16:27 | -4.68191 | 55.56207 | 4466 ft | 247 kts | 311° |
| 2026-04-25 16:27 | -4.67106 | 55.54899 | 5198 ft | 240 kts | 314° |
| 2026-04-25 16:27 | -4.65718 | 55.53962 | 5867 ft | 244 kts | 334° |
| 2026-04-25 16:27 | -4.64092 | 55.53307 | 6048 ft | 256 kts | 339° |
| 2026-04-25 16:28 | -4.62386 | 55.52697 | 6046 ft | 257 kts | 340° |
| 2026-04-25 16:28 | -4.60669 | 55.52097 | 6046 ft | 257 kts | 340° |
| 2026-04-25 16:28 | -4.58987 | 55.51499 | 6045 ft | 256 kts | 340° |
| 2026-04-25 16:28 | -4.57296 | 55.50903 | 6051 ft | 255 kts | 340° |
| 2026-04-25 16:29 | -4.55601 | 55.50332 | 6045 ft | 255 kts | 340° |
| 2026-04-25 16:29 | -4.53930 | 55.49766 | 6046 ft | 255 kts | 340° |
| 2026-04-25 16:29 | -4.52230 | 55.49189 | 5876 ft | 254 kts | 340° |
| 2026-04-25 16:29 | -4.50562 | 55.48656 | 5628 ft | 250 kts | 339° |
| 2026-04-25 16:30 | -4.48936 | 55.48071 | 5381 ft | 245 kts | 331° |
| 2026-04-25 16:30 | -4.47645 | 55.46985 | 5137 ft | 239 kts | 309° |
| 2026-04-25 16:30 | -4.46637 | 55.45667 | 4899 ft | 234 kts | 306° |
| 2026-04-25 16:30 | -4.45692 | 55.44355 | 4656 ft | 231 kts | 304° |
| 2026-04-25 16:31 | -4.44952 | 55.42950 | 4431 ft | 225 kts | 279° |
| 2026-04-25 16:31 | -4.44975 | 55.41437 | 4265 ft | 218 kts | 251° |
| 2026-04-25 16:31 | -4.45833 | 55.40217 | 4094 ft | 213 kts | 216° |
| 2026-04-25 16:31 | -4.47205 | 55.39731 | 3913 ft | 211 kts | 180° |
| 2026-04-25 16:32 | -4.48587 | 55.40121 | 3793 ft | 202 kts | 154° |
| 2026-04-25 16:32 | -4.49700 | 55.40855 | 3649 ft | 183 kts | 147° |
| 2026-04-25 16:32 | -4.50678 | 55.41574 | 3416 ft | 169 kts | 147° |
| 2026-04-25 16:32 | -4.51619 | 55.42272 | 3122 ft | 163 kts | 147° |
| 2026-04-25 16:33 | -4.52553 | 55.42962 | 3013 ft | 167 kts | 148° |
| 2026-04-25 16:33 | -4.53522 | 55.43624 | 2912 ft | 168 kts | 149° |
| 2026-04-25 16:33 | -4.54507 | 55.44230 | 2672 ft | 163 kts | 153° |
| 2026-04-25 16:33 | -4.55530 | 55.44706 | 2438 ft | 160 kts | 160° |
| 2026-04-25 16:34 | -4.56565 | 55.45087 | 2126 ft | 158 kts | 163° |
| 2026-04-25 16:34 | -4.57602 | 55.45401 | 1842 ft | 151 kts | 178° |
| 2026-04-25 16:34 | -4.58703 | 55.45420 | 1598 ft | 168 kts | 180° |
| 2026-04-25 16:34 | -4.59854 | 55.45616 | 1534 ft | 160 kts | 168° |
| 2026-04-25 16:35 | -4.60927 | 55.45847 | 1380 ft | 154 kts | 175° |
| 2026-04-25 16:35 | -4.61997 | 55.46017 | 1246 ft | 153 kts | 171° |
| 2026-04-25 16:35 | -4.63018 | 55.46430 | 1106 ft | 160 kts | 153° |
| 2026-04-25 16:35 | -4.63889 | 55.47150 | 920 ft | 160 kts | 131° |
| 2026-04-25 16:36 | -4.64543 | 55.48065 | 767 ft | 158 kts | 124° |
| 2026-04-25 16:36 | -4.64755 | 55.48383 | 695 ft | 157 kts | 126° |
| 2026-04-25 16:36 | -4.65797 | 55.49844 | 390 ft | 157 kts | 126° |
| 2026-04-25 16:36 | -4.66420 | 55.50738 | 193 ft | 153 kts | 127° |
| 2026-04-25 16:37 | -4.67020 | 55.51594 | 32 ft | 141 kts | 128° |
| 2026-04-25 16:37 | -4.67529 | 55.52315 | 16 ft | 104 kts | 123° |
| 2026-04-25 16:37 | -4.67849 | 55.52774 | 15 ft | 56 kts | 122° |
| 2026-04-25 16:37 | -4.68010 | 55.53009 | 15 ft | 35 kts | 123° |
| 2026-04-25 16:38 | -4.68121 | 55.53154 | 16 ft | 14 kts | 150° |
| 2026-04-25 16:38 | -4.68222 | 55.53170 | 16 ft | 12 kts | 168° |
| 2026-04-25 16:38 | -4.68273 | 55.53207 | 15 ft | 10 kts | 100° |
| 2026-04-25 16:38 | -4.68228 | 55.53260 | 15 ft | 11 kts | 17° |
| 2026-04-25 16:39 | -4.68164 | 55.53225 | 15 ft | 12 kts | 303° |
| 2026-04-25 16:39 | -4.68080 | 55.53109 | 16 ft | 25 kts | 305° |
| 2026-04-25 16:39 | -4.67981 | 55.52966 | 15 ft | 24 kts | 304° |
| 2026-04-25 16:39 | -4.67887 | 55.52832 | 15 ft | 23 kts | 305° |
| 2026-04-25 16:40 | -4.67776 | 55.52675 | 14 ft | 28 kts | 305° |
| 2026-04-25 16:40 | -4.67668 | 55.52519 | 15 ft | 26 kts | 304° |
| 2026-04-25 16:40 | -4.67565 | 55.52373 | 15 ft | 24 kts | 305° |
| 2026-04-25 16:40 | -4.67469 | 55.52235 | 16 ft | 23 kts | 305° |
| 2026-04-25 16:41 | -4.67377 | 55.52105 | 17 ft | 22 kts | 304° |
| 2026-04-25 16:41 | -4.67319 | 55.52022 | 17 ft | 21 kts | 305° |
| 2026-04-25 16:41 | -4.67126 | 55.51747 | 20 ft | 21 kts | 305° |
| 2026-04-25 16:42 | -4.67040 | 55.51624 | 20 ft | 21 kts | 304° |
| 2026-04-25 16:42 | -4.66957 | 55.51503 | 20 ft | 20 kts | 304° |
| 2026-04-25 16:42 | -4.66892 | 55.51408 | 20 ft | 8 kts | 295° |
| 2026-04-25 16:42 | -4.66920 | 55.51363 | 20 ft | 9 kts | 214° |
| 2026-04-25 16:43 | -4.66976 | 55.51324 | 20 ft | 9 kts | 216° |
| 2026-04-25 16:43 | -4.67007 | 55.51297 | 20 ft | 0 kts | 246° |
| 2026-04-25 16:43 | -4.67007 | 55.51296 | 20 ft | 0 kts | 246° |
| 2026-04-25 16:43 | -4.67009 | 55.51289 | 20 ft | 1 kts | 264° |
| 2026-04-25 16:44 | -4.66999 | 55.51265 | 20 ft | 4 kts | 302° |
| 2026-04-25 16:44 | -4.66988 | 55.51230 | 20 ft | 5 kts | 238° |
| 2026-04-25 16:44 | -4.67022 | 55.51213 | 20 ft | 5 kts | 212° |
| 2026-04-25 16:44 | -4.67043 | 55.51198 | 20 ft | 2 kts | 215° |
| 2026-04-25 16:45 | -4.67049 | 55.51194 | 20 ft | 0 kts | 215° |
| 2026-04-25 16:45 | -4.67051 | 55.51192 | 20 ft | 0 kts | 214° |